Portada
METAR-TAF:

METAR-TAF

Aeroports :

Mahshahr, Iran

latitud: 30-33-23N, longitud: 049-09-07E, altitud: 2 m

Observació

L'informe es va fer fa 40 minuts, a les 06:00 UTC
Vent 8 kt del Nord-Oest
Temperatura 17°C
Humitat 72%
Pressió 1016 hPa
Visibilitat: 3000 m
calitja

METAR: OIAM 210600Z 31008KT 3000 HZ NSC 17/12 Q1016

Hora: 10:10 (06:40 UTC)


TAF: manca

Observacions i pronòstics meteorològics de més de 4000 aeroports (METAR i TAF).

Les estacions disponibles són els punts grocs i vermells al mapa.

Posi el ratolí al punt desitjat per veure el nom de l'estació.

Feu clic per veure les observacions i els pronòstics meteorològics.

Per canviar el mapa: feu clic els botons verds amb una creu de color negre per apropar; al botó verd amb un guió per allunyar la imatge; o en les fletxes verdes per a mapes adjacents.


METAR-TAF: